createdAt,value
2022-08-26T00:00:15.756Z,23.34
2022-08-26T00:02:43.863Z,23.32
2022-08-26T00:05:13.591Z,23.30
2022-08-26T00:07:42.294Z,23.27
2022-08-26T00:10:13.529Z,23.24
2022-08-26T00:12:42.744Z,23.21
2022-08-26T00:15:14.811Z,23.19
2022-08-26T00:17:43.449Z,23.16
2022-08-26T00:20:15.936Z,23.14
2022-08-26T00:22:44.495Z,23.10
2022-08-26T00:25:13.299Z,23.10
2022-08-26T00:27:43.985Z,23.08
2022-08-26T00:30:16.975Z,23.05
2022-08-26T00:32:51.431Z,23.02
2022-08-26T00:35:21.942Z,23.00
2022-08-26T00:37:51.957Z,22.98
2022-08-26T00:40:24.427Z,22.95
2022-08-26T00:42:52.797Z,22.93
2022-08-26T00:45:21.079Z,22.93
2022-08-26T00:47:53.715Z,22.89
2022-08-26T00:50:27.807Z,22.86
2022-08-26T00:52:59.252Z,22.85
2022-08-26T00:55:38.197Z,22.82
2022-08-26T00:58:08.726Z,22.81
2022-08-26T01:00:37.029Z,22.80
2022-08-26T01:03:05.931Z,22.79
2022-08-26T01:05:42.829Z,22.75
2022-08-26T01:08:11.280Z,22.72
2022-08-26T01:10:40.182Z,22.69
2022-08-26T01:13:11.158Z,22.65
2022-08-26T01:15:44.407Z,22.62
2022-08-26T01:18:14.760Z,22.61
2022-08-26T01:20:57.665Z,22.58
2022-08-26T01:23:29.540Z,22.55
2022-08-26T01:26:05.294Z,22.51
2022-08-26T01:28:37.073Z,22.47
2022-08-26T01:31:10.592Z,22.49
2022-08-26T01:33:51.931Z,22.53
2022-08-26T01:36:20.319Z,22.55
2022-08-26T01:38:50.353Z,22.59
2022-08-26T01:41:19.979Z,22.60
2022-08-26T01:43:58.060Z,22.63
2022-08-26T01:46:29.613Z,22.67
2022-08-26T01:49:01.363Z,22.73
2022-08-26T01:51:30.415Z,22.74
2022-08-26T01:54:00.283Z,22.79
2022-08-26T01:56:33.184Z,22.81
2022-08-26T01:59:09.583Z,22.84
2022-08-26T02:01:39.059Z,22.88
2022-08-26T02:04:24.910Z,22.89
2022-08-26T02:06:54.819Z,22.89
2022-08-26T02:09:25.830Z,22.93
2022-08-26T02:11:55.671Z,22.96
2022-08-26T02:14:29.302Z,22.97
2022-08-26T02:16:57.659Z,22.99
2022-08-26T02:19:32.672Z,23.01
2022-08-26T02:22:05.639Z,23.05
2022-08-26T02:24:49.686Z,23.07
2022-08-26T02:27:20.415Z,23.09
2022-08-26T02:29:54.278Z,23.12
2022-08-26T02:32:22.406Z,23.10
2022-08-26T02:34:51.634Z,23.08
2022-08-26T02:37:20.187Z,23.07
2022-08-26T02:39:52.629Z,23.08
2022-08-26T02:42:20.772Z,23.07
2022-08-26T02:44:49.613Z,23.03
2022-08-26T02:47:18.157Z,23.00
2022-08-26T02:49:49.287Z,22.99
2022-08-26T02:52:17.732Z,22.99
2022-08-26T02:54:46.360Z,22.97
2022-08-26T02:57:20.583Z,22.94
2022-08-26T02:59:50.426Z,22.93
2022-08-26T03:02:18.610Z,22.94
2022-08-26T03:04:57.983Z,22.96
2022-08-26T03:07:33.176Z,22.96
2022-08-26T03:10:08.264Z,22.97
2022-08-26T03:12:38.121Z,22.97
2022-08-26T03:15:17.573Z,22.97
2022-08-26T03:17:48.334Z,22.99
2022-08-26T03:20:17.518Z,23.01
2022-08-26T03:22:46.865Z,23.01
2022-08-26T03:25:17.545Z,23.00
2022-08-26T03:27:47.480Z,23.00
2022-08-26T03:30:34.522Z,23.01
2022-08-26T03:33:03.192Z,23.02
2022-08-26T03:35:33.884Z,23.02
2022-08-26T03:38:04.776Z,22.99
2022-08-26T03:40:33.726Z,23.00
2022-08-26T03:43:04.739Z,23.00
2022-08-26T03:45:33.288Z,23.02
2022-08-26T03:48:01.657Z,23.04
2022-08-26T03:50:31.046Z,23.07
2022-08-26T03:53:03.078Z,23.08
2022-08-26T03:55:33.404Z,23.09
2022-08-26T03:58:03.330Z,23.05
2022-08-26T04:00:31.832Z,23.07
2022-08-26T04:03:02.599Z,23.07
2022-08-26T04:05:31.106Z,23.04
2022-08-26T04:07:59.221Z,23.05
2022-08-26T04:10:29.208Z,23.05
2022-08-26T04:12:58.930Z,23.07
2022-08-26T04:15:29.930Z,23.08
2022-08-26T04:17:58.290Z,23.09
2022-08-26T04:20:26.862Z,23.10
2022-08-26T04:22:55.021Z,23.10
2022-08-26T04:25:24.361Z,23.10
2022-08-26T04:27:52.591Z,23.09
2022-08-26T04:30:21.262Z,23.05
2022-08-26T04:32:51.020Z,23.04
2022-08-26T04:35:22.788Z,23.03
2022-08-26T04:37:55.405Z,23.04
2022-08-26T04:40:23.860Z,23.06
2022-08-26T04:42:52.034Z,23.05
2022-08-26T04:45:22.577Z,23.03
2022-08-26T04:47:56.320Z,23.03
2022-08-26T04:50:25.745Z,23.04
2022-08-26T04:52:55.303Z,23.07
2022-08-26T04:55:37.314Z,23.09
2022-08-26T04:58:10.375Z,23.09
2022-08-26T05:00:39.593Z,23.09
2022-08-26T05:03:10.335Z,23.13
2022-08-26T05:05:41.207Z,23.16
2022-08-26T05:08:11.369Z,23.18
2022-08-26T05:10:44.253Z,23.20
2022-08-26T05:13:15.497Z,23.22
2022-08-26T05:15:45.304Z,23.22
2022-08-26T05:18:16.551Z,23.23
2022-08-26T05:20:48.023Z,23.23
2022-08-26T05:23:17.575Z,23.23
2022-08-26T05:25:49.126Z,23.24
2022-08-26T05:28:19.466Z,23.22
2022-08-26T05:30:47.944Z,23.21
2022-08-26T05:33:20.052Z,23.20
2022-08-26T05:35:49.176Z,23.23
2022-08-26T05:38:20.265Z,23.23
2022-08-26T05:40:52.822Z,23.29
2022-08-26T05:43:22.179Z,23.34
2022-08-26T05:45:51.872Z,23.38
2022-08-26T05:48:24.544Z,23.45
2022-08-26T05:50:54.856Z,23.46
2022-08-26T05:53:26.125Z,23.48
2022-08-26T05:55:56.072Z,23.51
2022-08-26T05:58:24.913Z,23.53
2022-08-26T06:01:01.786Z,23.58
2022-08-26T06:03:34.359Z,23.61
2022-08-26T06:06:06.230Z,23.67
2022-08-26T06:08:36.107Z,23.67
2022-08-26T06:11:08.773Z,23.68
2022-08-26T06:13:47.069Z,23.70
2022-08-26T06:16:19.402Z,23.74
2022-08-26T06:18:50.604Z,23.76
2022-08-26T06:21:21.315Z,23.78
2022-08-26T06:24:10.646Z,23.75
2022-08-26T06:26:39.855Z,23.78
2022-08-26T06:29:11.499Z,23.78
2022-08-26T06:31:53.100Z,23.77
2022-08-26T06:34:23.031Z,23.80
2022-08-26T06:36:54.856Z,23.79
2022-08-26T06:39:23.027Z,23.77
2022-08-26T06:41:51.424Z,23.81
2022-08-26T06:44:20.244Z,23.87
2022-08-26T06:46:50.691Z,23.91
2022-08-26T06:49:27.147Z,24.00
2022-08-26T06:51:59.160Z,24.01
2022-08-26T06:54:28.236Z,24.06
2022-08-26T06:56:57.468Z,24.21
2022-08-26T06:59:26.841Z,24.32
2022-08-26T07:01:57.407Z,24.45
2022-08-26T07:04:27.919Z,24.53
2022-08-26T07:06:58.006Z,24.48
2022-08-26T07:09:29.174Z,24.45
2022-08-26T07:11:58.275Z,24.49
2022-08-26T07:14:27.167Z,24.44
2022-08-26T07:16:56.145Z,24.44
2022-08-26T07:19:30.401Z,24.49
2022-08-26T07:22:03.374Z,24.49
2022-08-26T07:24:32.784Z,24.49
2022-08-26T07:27:02.769Z,24.47
2022-08-26T07:29:31.702Z,24.45
2022-08-26T07:32:00.153Z,24.43
2022-08-26T07:34:28.350Z,24.38
2022-08-26T07:36:57.571Z,24.36
2022-08-26T07:39:28.769Z,24.42
2022-08-26T07:42:01.335Z,24.41
2022-08-26T07:44:29.828Z,24.43
2022-08-26T07:46:58.742Z,24.47
2022-08-26T07:49:28.093Z,24.55
2022-08-26T07:51:57.138Z,24.70
2022-08-26T07:54:27.321Z,24.81
2022-08-26T07:56:56.167Z,24.86
2022-08-26T07:59:24.810Z,24.87
2022-08-26T08:01:52.947Z,24.89
2022-08-26T08:04:26.014Z,24.89
2022-08-26T08:06:55.565Z,24.88
2022-08-26T08:09:25.391Z,24.90
2022-08-26T08:11:54.861Z,24.91
2022-08-26T08:14:23.106Z,24.95
2022-08-26T08:16:54.662Z,25.04
2022-08-26T08:19:23.945Z,25.17
2022-08-26T08:22:13.328Z,25.38
2022-08-26T08:24:50.023Z,25.62
2022-08-26T08:27:24.105Z,25.79
2022-08-26T08:29:54.322Z,25.97
2022-08-26T08:32:24.230Z,26.11
2022-08-26T08:34:52.880Z,26.05
2022-08-26T08:37:21.281Z,25.94
2022-08-26T08:39:50.551Z,25.86
2022-08-26T08:42:46.896Z,25.70
2022-08-26T08:45:22.216Z,25.51
2022-08-26T08:47:54.812Z,25.36
2022-08-26T08:50:31.102Z,25.25
2022-08-26T08:53:16.496Z,25.20
2022-08-26T08:56:00.033Z,25.20
2022-08-26T08:58:44.874Z,25.22
2022-08-26T09:01:26.169Z,25.19
2022-08-26T09:04:10.616Z,25.11
2022-08-26T09:06:41.054Z,25.06
2022-08-26T09:09:22.936Z,25.01
2022-08-26T09:11:51.734Z,25.12
2022-08-26T09:14:21.470Z,25.28
2022-08-26T09:16:57.890Z,25.40
2022-08-26T09:19:35.796Z,25.49
2022-08-26T09:22:09.641Z,25.52
2022-08-26T09:24:48.421Z,25.57
2022-08-26T09:27:41.965Z,25.75
2022-08-26T09:30:26.680Z,25.87
2022-08-26T09:33:10.428Z,25.99
2022-08-26T09:35:43.164Z,26.08
2022-08-26T09:38:26.774Z,26.16
2022-08-26T09:40:59.702Z,26.26
2022-08-26T09:43:29.064Z,26.26
2022-08-26T09:46:16.292Z,26.20
2022-08-26T09:48:44.609Z,26.09
2022-08-26T09:51:32.113Z,25.92
2022-08-26T09:54:05.750Z,25.81
2022-08-26T09:56:39.194Z,25.76
2022-08-26T09:59:11.996Z,25.75
2022-08-26T10:01:43.893Z,25.70
2022-08-26T10:04:21.223Z,25.68
2022-08-26T10:07:00.071Z,25.62
2022-08-26T10:09:30.041Z,25.50
2022-08-26T10:12:05.335Z,25.44
2022-08-26T10:14:39.760Z,25.46
2022-08-26T10:17:17.263Z,25.50
2022-08-26T10:19:56.765Z,25.57
2022-08-26T10:22:33.426Z,25.64
2022-08-26T10:25:05.526Z,25.66
2022-08-26T10:27:51.034Z,25.56
2022-08-26T10:30:24.387Z,25.39
2022-08-26T10:32:58.800Z,25.24
2022-08-26T10:35:27.410Z,25.17
2022-08-26T10:38:03.881Z,25.12
2022-08-26T10:40:50.951Z,25.07
2022-08-26T10:43:23.531Z,25.04
2022-08-26T10:45:58.461Z,25.06
2022-08-26T10:48:37.228Z,25.06
2022-08-26T10:51:06.412Z,25.15
2022-08-26T10:53:51.532Z,25.17
2022-08-26T10:56:39.190Z,25.14
2022-08-26T10:59:14.659Z,25.16
2022-08-26T11:01:52.535Z,25.24
2022-08-26T11:04:48.156Z,25.34
2022-08-26T11:07:41.257Z,25.51
2022-08-26T11:10:47.210Z,25.57
2022-08-26T11:13:17.210Z,25.59
2022-08-26T11:16:12.417Z,25.64
2022-08-26T11:18:48.603Z,25.80
2022-08-26T11:22:00.854Z,25.83
2022-08-26T11:25:11.612Z,25.86
2022-08-26T11:28:05.286Z,25.86
2022-08-26T11:30:44.553Z,25.80
2022-08-26T11:33:57.857Z,25.67
2022-08-26T11:36:59.023Z,25.50
2022-08-26T11:39:54.468Z,25.46
2022-08-26T11:42:34.247Z,25.51
2022-08-26T11:45:19.320Z,25.63
2022-08-26T11:47:49.504Z,25.85
2022-08-26T11:50:23.340Z,26.11
2022-08-26T11:53:01.955Z,26.36
2022-08-26T11:55:31.843Z,26.57
2022-08-26T11:58:02.601Z,26.70
2022-08-26T12:00:50.264Z,26.66
2022-08-26T12:03:23.068Z,26.38
2022-08-26T12:05:53.543Z,26.23
2022-08-26T12:08:29.258Z,26.11
2022-08-26T12:11:06.905Z,26.04
2022-08-26T12:13:35.779Z,25.98
2022-08-26T12:16:07.414Z,25.98
2022-08-26T12:18:39.616Z,26.07
2022-08-26T12:21:22.176Z,26.15
2022-08-26T12:23:55.891Z,26.37
2022-08-26T12:26:28.533Z,26.79
2022-08-26T12:29:00.032Z,27.16
2022-08-26T12:31:32.892Z,27.45
2022-08-26T12:34:04.852Z,27.88
2022-08-26T12:36:37.355Z,28.46
2022-08-26T12:39:12.835Z,28.81
2022-08-26T12:41:46.912Z,28.62
2022-08-26T12:44:36.161Z,28.27
2022-08-26T12:47:20.450Z,27.86
2022-08-26T12:50:04.907Z,27.29
2022-08-26T12:52:36.507Z,26.82
2022-08-26T12:55:19.153Z,26.45
2022-08-26T12:57:48.006Z,26.05
2022-08-26T13:00:35.268Z,25.64
2022-08-26T13:03:04.616Z,25.35
2022-08-26T13:05:35.723Z,25.16
2022-08-26T13:08:17.636Z,24.95
2022-08-26T13:10:48.755Z,24.86
2022-08-26T13:13:16.875Z,24.80
2022-08-26T13:15:45.272Z,24.82
2022-08-26T13:18:13.413Z,24.82
2022-08-26T13:20:44.818Z,24.78
2022-08-26T13:23:14.010Z,24.76
2022-08-26T13:25:42.454Z,24.38
2022-08-26T13:28:12.326Z,24.22
2022-08-26T13:30:41.583Z,24.34
2022-08-26T13:33:12.272Z,24.37
2022-08-26T13:35:42.776Z,24.23
2022-08-26T13:38:33.382Z,24.27
2022-08-26T13:41:04.024Z,24.64
2022-08-26T13:43:34.069Z,25.56
2022-08-26T13:46:02.614Z,26.63
2022-08-26T13:48:31.425Z,27.67
2022-08-26T13:51:00.100Z,28.32
2022-08-26T13:53:29.374Z,28.40
2022-08-26T13:55:58.160Z,27.82
2022-08-26T13:58:26.496Z,27.31
2022-08-26T14:00:57.117Z,27.16
2022-08-26T14:03:25.711Z,26.92
2022-08-26T14:05:54.390Z,26.47
2022-08-26T14:08:23.395Z,25.92
2022-08-26T14:10:51.501Z,25.64
2022-08-26T14:13:19.840Z,25.47
2022-08-26T14:15:48.307Z,25.41
2022-08-26T14:18:21.416Z,25.40
2022-08-26T14:20:59.526Z,25.52
2022-08-26T14:23:31.265Z,25.75
2022-08-26T14:25:59.981Z,26.10
2022-08-26T14:28:28.152Z,26.11
2022-08-26T14:30:59.320Z,25.99
2022-08-26T14:33:33.230Z,25.86
2022-08-26T14:36:15.960Z,25.67
2022-08-26T14:38:44.814Z,25.51
2022-08-26T14:41:14.781Z,25.48
2022-08-26T14:43:49.733Z,25.40
2022-08-26T14:46:21.546Z,25.30
2022-08-26T14:48:51.283Z,25.16
2022-08-26T14:51:23.799Z,25.02
2022-08-26T14:54:10.474Z,24.85
2022-08-26T14:56:45.291Z,24.61
2022-08-26T14:59:14.312Z,24.52
2022-08-26T15:01:42.713Z,24.55
2022-08-26T15:04:12.730Z,24.43
2022-08-26T15:06:41.711Z,24.34
2022-08-26T15:09:09.868Z,24.34
2022-08-26T15:11:38.104Z,24.40
2022-08-26T15:14:06.826Z,24.50
2022-08-26T15:16:35.625Z,24.67
2022-08-26T15:19:05.259Z,24.76
2022-08-26T15:21:36.627Z,24.76
2022-08-26T15:24:06.088Z,24.60
2022-08-26T15:26:35.193Z,24.35
2022-08-26T15:29:05.164Z,24.19
2022-08-26T15:31:35.541Z,24.02
2022-08-26T15:34:08.533Z,23.90
2022-08-26T15:36:40.742Z,23.78
2022-08-26T15:39:10.371Z,23.64
2022-08-26T15:41:38.832Z,23.45
2022-08-26T15:44:08.986Z,23.34
2022-08-26T15:46:38.519Z,23.33
2022-08-26T15:49:07.424Z,23.27
2022-08-26T15:51:45.503Z,23.30
2022-08-26T15:54:16.532Z,23.38
2022-08-26T15:56:45.379Z,23.42
2022-08-26T15:59:16.220Z,23.53
2022-08-26T16:01:44.852Z,23.61
2022-08-26T16:04:13.960Z,23.56
2022-08-26T16:06:44.063Z,23.47
2022-08-26T16:09:12.558Z,23.40
2022-08-26T16:11:40.897Z,23.36
2022-08-26T16:14:09.796Z,23.27
2022-08-26T16:16:40.004Z,23.22
2022-08-26T16:19:08.574Z,23.18
2022-08-26T16:21:37.065Z,23.14
2022-08-26T16:24:07.382Z,23.06
2022-08-26T16:26:38.435Z,22.96
2022-08-26T16:29:10.119Z,22.90
2022-08-26T16:31:38.983Z,22.86
2022-08-26T16:34:08.038Z,22.85
2022-08-26T16:36:36.625Z,22.81
2022-08-26T16:39:08.751Z,22.77
2022-08-26T16:41:37.426Z,22.75
2022-08-26T16:44:07.053Z,22.68
2022-08-26T16:46:36.157Z,22.64
2022-08-26T16:49:04.958Z,22.64
2022-08-26T16:51:38.051Z,22.62
2022-08-26T16:54:09.592Z,22.64
2022-08-26T16:56:38.373Z,22.63
2022-08-26T16:59:10.538Z,22.63
2022-08-26T17:01:38.979Z,22.58
2022-08-26T17:04:07.190Z,22.57
2022-08-26T17:06:35.913Z,22.55
2022-08-26T17:09:08.343Z,22.53
2022-08-26T17:11:36.889Z,22.53
2022-08-26T17:14:05.829Z,22.54
2022-08-26T17:16:34.232Z,22.53
2022-08-26T17:19:02.611Z,22.52
2022-08-26T17:21:30.804Z,22.51
2022-08-26T17:23:59.307Z,22.51
2022-08-26T17:26:29.529Z,22.52
2022-08-26T17:28:57.716Z,22.51
2022-08-26T17:31:26.833Z,22.46
2022-08-26T17:33:55.515Z,22.41
2022-08-26T17:36:28.031Z,22.37
2022-08-26T17:38:57.842Z,22.32
2022-08-26T17:41:28.456Z,22.29
2022-08-26T17:43:57.134Z,22.25
2022-08-26T17:46:27.926Z,22.22
2022-08-26T17:48:56.301Z,22.16
2022-08-26T17:51:25.019Z,22.16
2022-08-26T17:53:53.973Z,22.13
2022-08-26T17:56:25.912Z,22.14
2022-08-26T17:59:04.011Z,22.12
2022-08-26T18:01:32.776Z,22.08
2022-08-26T18:04:01.350Z,22.04
2022-08-26T18:06:31.070Z,21.98
2022-08-26T18:09:00.340Z,21.98
2022-08-26T18:11:28.965Z,21.96
2022-08-26T18:13:59.011Z,21.92
2022-08-26T18:16:27.665Z,21.88
2022-08-26T18:18:56.622Z,21.86
2022-08-26T18:21:27.509Z,21.82
2022-08-26T18:23:56.275Z,21.80
2022-08-26T18:26:28.110Z,21.77
2022-08-26T18:28:58.573Z,21.75
2022-08-26T18:31:27.702Z,21.75
2022-08-26T18:33:56.329Z,21.72
2022-08-26T18:36:27.689Z,21.67
2022-08-26T18:38:56.926Z,21.63
2022-08-26T18:41:27.813Z,21.59
2022-08-26T18:43:58.371Z,21.58
2022-08-26T18:46:29.027Z,21.57
2022-08-26T18:48:58.460Z,21.56
2022-08-26T18:51:30.646Z,21.57
2022-08-26T18:53:59.790Z,21.55
2022-08-26T18:56:28.475Z,21.51
2022-08-26T18:58:58.910Z,21.49
2022-08-26T19:01:28.656Z,21.45
2022-08-26T19:03:58.007Z,21.39
2022-08-26T19:06:28.174Z,21.45
2022-08-26T19:08:58.148Z,21.48
2022-08-26T19:11:31.585Z,21.50
2022-08-26T19:14:03.213Z,21.46
2022-08-26T19:16:32.045Z,21.42
2022-08-26T19:19:01.926Z,21.39
2022-08-26T19:21:31.145Z,21.36
2022-08-26T19:24:02.535Z,21.34
2022-08-26T19:26:32.605Z,21.31
2022-08-26T19:29:02.583Z,21.27
2022-08-26T19:31:31.198Z,21.24
2022-08-26T19:33:59.542Z,21.24
2022-08-26T19:36:29.210Z,21.22
2022-08-26T19:38:58.100Z,21.23
2022-08-26T19:41:37.075Z,21.22
2022-08-26T19:44:12.899Z,21.16
2022-08-26T19:46:41.622Z,21.17
2022-08-26T19:49:09.821Z,21.15
2022-08-26T19:51:38.026Z,21.13
2022-08-26T19:54:06.852Z,21.09
2022-08-26T19:56:35.442Z,21.06
2022-08-26T19:59:03.734Z,21.02
2022-08-26T20:01:33.418Z,20.99
2022-08-26T20:04:01.864Z,20.98
2022-08-26T20:06:30.022Z,20.95
2022-08-26T20:08:58.696Z,20.93
2022-08-26T20:11:27.102Z,20.91
2022-08-26T20:13:55.415Z,20.91
2022-08-26T20:16:23.734Z,20.89
2022-08-26T20:19:10.699Z,20.87
2022-08-26T20:21:41.288Z,20.84
2022-08-26T20:24:14.238Z,20.82
2022-08-26T20:26:45.023Z,20.79
2022-08-26T20:29:16.918Z,20.79
2022-08-26T20:31:45.768Z,20.77
2022-08-26T20:34:18.430Z,20.78
2022-08-26T20:36:48.072Z,20.79
2022-08-26T20:39:18.259Z,20.79
2022-08-26T20:41:46.354Z,20.81
2022-08-26T20:44:16.594Z,20.81
2022-08-26T20:46:45.381Z,20.81
2022-08-26T20:49:18.035Z,20.77
2022-08-26T20:51:46.748Z,20.75
2022-08-26T20:54:15.349Z,20.75
2022-08-26T20:56:43.514Z,20.75
2022-08-26T20:59:11.669Z,20.74
2022-08-26T21:01:42.437Z,20.75
2022-08-26T21:04:17.045Z,20.74
2022-08-26T21:06:52.686Z,20.73
2022-08-26T21:09:22.707Z,20.70
2022-08-26T21:11:51.585Z,20.69
2022-08-26T21:14:22.832Z,20.65
2022-08-26T21:16:54.374Z,20.59
2022-08-26T21:19:24.505Z,20.55
2022-08-26T21:21:52.615Z,20.50
2022-08-26T21:24:20.999Z,20.47
2022-08-26T21:26:49.581Z,20.47
2022-08-26T21:29:18.782Z,20.45
2022-08-26T21:31:47.133Z,20.40
2022-08-26T21:34:16.046Z,20.38
2022-08-26T21:36:45.961Z,20.33
2022-08-26T21:39:14.854Z,20.30
2022-08-26T21:41:44.640Z,20.25
2022-08-26T21:44:14.921Z,20.20
2022-08-26T21:46:45.426Z,20.13
2022-08-26T21:49:17.385Z,20.05
2022-08-26T21:51:49.158Z,19.98
2022-08-26T21:54:18.036Z,19.96
2022-08-26T21:56:47.969Z,19.93
2022-08-26T21:59:21.382Z,19.91
2022-08-26T22:01:51.202Z,19.87
2022-08-26T22:04:19.636Z,19.83
2022-08-26T22:06:51.993Z,19.78
2022-08-26T22:09:23.387Z,19.70
2022-08-26T22:11:53.195Z,19.62
2022-08-26T22:14:25.400Z,19.58
2022-08-26T22:16:56.740Z,19.52
2022-08-26T22:19:25.674Z,19.44
2022-08-26T22:21:56.480Z,19.34
2022-08-26T22:24:27.621Z,19.25
2022-08-26T22:26:56.468Z,19.18
2022-08-26T22:29:25.599Z,19.11
2022-08-26T22:31:54.189Z,19.04
2022-08-26T22:34:23.182Z,18.98
2022-08-26T22:36:51.935Z,18.90
2022-08-26T22:39:24.609Z,18.85
2022-08-26T22:41:53.619Z,18.81
2022-08-26T22:44:24.718Z,18.75
2022-08-26T22:46:55.078Z,18.70
2022-08-26T22:49:23.803Z,18.65
2022-08-26T22:51:52.009Z,18.61
2022-08-26T22:54:21.746Z,18.60
2022-08-26T22:56:49.880Z,18.59
2022-08-26T22:59:18.043Z,18.58
2022-08-26T23:01:47.253Z,18.55
2022-08-26T23:04:16.137Z,18.53
2022-08-26T23:06:47.745Z,18.52
2022-08-26T23:09:18.243Z,18.55
2022-08-26T23:11:49.620Z,18.58
2022-08-26T23:14:19.511Z,18.63
2022-08-26T23:16:48.327Z,18.68
2022-08-26T23:19:19.486Z,18.71
2022-08-26T23:21:48.434Z,18.73
2022-08-26T23:24:17.427Z,18.74
2022-08-26T23:26:47.732Z,18.74
2022-08-26T23:29:16.426Z,18.75
2022-08-26T23:31:44.872Z,18.77
2022-08-26T23:34:31.327Z,18.77
2022-08-26T23:37:00.136Z,18.74
2022-08-26T23:39:29.633Z,18.74
2022-08-26T23:42:01.570Z,18.79
2022-08-26T23:44:30.536Z,18.80
2022-08-26T23:46:59.286Z,18.79
2022-08-26T23:49:27.856Z,18.78
2022-08-26T23:52:13.298Z,18.78
2022-08-26T23:54:41.853Z,18.78
2022-08-26T23:57:11.890Z,18.81
2022-08-26T23:59:40.679Z,18.80
